sensor_id;sensor_type;location;lat;lon;timestamp;temperature;humidity
19654;DHT22;9975;48.046;7.804;2022-12-07T01:57:19;3.60;99.90
19654;DHT22;9975;48.046;7.804;2022-12-07T01:59:48;3.70;99.90
19654;DHT22;9975;48.046;7.804;2022-12-07T02:02:23;3.60;99.90
19654;DHT22;9975;48.046;7.804;2022-12-07T02:04:52;3.60;99.90
19654;DHT22;9975;48.046;7.804;2022-12-07T02:07:19;3.50;99.90
19654;DHT22;9975;48.046;7.804;2022-12-07T02:09:45;3.50;99.90
19654;DHT22;9975;48.046;7.804;2022-12-07T02:12:11;3.60;99.90
19654;DHT22;9975;48.046;7.804;2022-12-07T02:14:37;3.50;99.90
19654;DHT22;9975;48.046;7.804;2022-12-07T02:17:21;3.50;99.90
19654;DHT22;9975;48.046;7.804;2022-12-07T02:28:37;3.70;99.90
19654;DHT22;9975;48.046;7.804;2022-12-07T02:31:12;3.70;99.90
19654;DHT22;9975;48.046;7.804;2022-12-07T02:33:56;3.70;99.90
19654;DHT22;9975;48.046;7.804;2022-12-07T02:36:28;3.70;99.90
19654;DHT22;9975;48.046;7.804;2022-12-07T02:39:02;3.60;99.90
19654;DHT22;9975;48.046;7.804;2022-12-07T02:41:50;3.70;99.90
19654;DHT22;9975;48.046;7.804;2022-12-07T02:44:20;3.70;99.90
19654;DHT22;9975;48.046;7.804;2022-12-07T02:47:01;3.70;99.90
19654;DHT22;9975;48.046;7.804;2022-12-07T02:49:28;3.70;99.90
19654;DHT22;9975;48.046;7.804;2022-12-07T02:51:54;3.60;99.90
19654;DHT22;9975;48.046;7.804;2022-12-07T02:54:21;3.90;99.90
19654;DHT22;9975;48.046;7.804;2022-12-07T02:56:50;3.80;99.90
19654;DHT22;9975;48.046;7.804;2022-12-07T03:16:10;3.80;99.90
19654;DHT22;9975;48.046;7.804;2022-12-07T03:19:29;3.80;99.90
19654;DHT22;9975;48.046;7.804;2022-12-07T03:21:39;3.80;99.90
19654;DHT22;9975;48.046;7.804;2022-12-07T03:24:13;3.70;99.90
19654;DHT22;9975;48.046;7.804;2022-12-07T03:26:44;3.80;99.90
19654;DHT22;9975;48.046;7.804;2022-12-07T03:29:17;3.70;99.90
19654;DHT22;9975;48.046;7.804;2022-12-07T03:31:48;3.80;99.90
19654;DHT22;9975;48.046;7.804;2022-12-07T03:34:43;3.80;99.90
19654;DHT22;9975;48.046;7.804;2022-12-07T03:37:31;3.80;99.90
19654;DHT22;9975;48.046;7.804;2022-12-07T03:42:50;3.70;99.90
19654;DHT22;9975;48.046;7.804;2022-12-07T03:45:17;3.70;99.90
19654;DHT22;9975;48.046;7.804;2022-12-07T03:48:00;3.80;99.90
19654;DHT22;9975;48.046;7.804;2022-12-07T03:50:49;3.80;99.90
19654;DHT22;9975;48.046;7.804;2022-12-07T03:53:24;3.90;99.90
19654;DHT22;9975;48.046;7.804;2022-12-07T03:55:52;4.00;99.90
19654;DHT22;9975;48.046;7.804;2022-12-07T03:58:21;4.00;99.90
19654;DHT22;9975;48.046;7.804;2022-12-07T04:00:48;3.80;99.90
19654;DHT22;9975;48.046;7.804;2022-12-07T04:03:14;3.80;99.90
19654;DHT22;9975;48.046;7.804;2022-12-07T04:05:40;3.80;99.90
19654;DHT22;9975;48.046;7.804;2022-12-07T04:08:06;3.80;99.90
19654;DHT22;9975;48.046;7.804;2022-12-07T04:10:32;3.80;99.90
19654;DHT22;9975;48.046;7.804;2022-12-07T04:15:23;3.70;99.90
19654;DHT22;9975;48.046;7.804;2022-12-07T04:17:49;3.60;99.90
19654;DHT22;9975;48.046;7.804;2022-12-07T04:20:16;3.60;99.90
19654;DHT22;9975;48.046;7.804;2022-12-07T04:22:41;3.70;99.90
19654;DHT22;9975;48.046;7.804;2022-12-07T04:25:07;3.60;99.90
19654;DHT22;9975;48.046;7.804;2022-12-07T04:27:33;3.80;99.90
19654;DHT22;9975;48.046;7.804;2022-12-07T04:29:58;3.80;99.90
19654;DHT22;9975;48.046;7.804;2022-12-07T04:32:24;3.70;99.90
19654;DHT22;9975;48.046;7.804;2022-12-07T04:34:50;3.70;99.90
19654;DHT22;9975;48.046;7.804;2022-12-07T04:37:15;3.80;99.90
19654;DHT22;9975;48.046;7.804;2022-12-07T04:39:42;3.80;99.90
19654;DHT22;9975;48.046;7.804;2022-12-07T04:42:10;3.60;99.90
19654;DHT22;9975;48.046;7.804;2022-12-07T04:44:36;3.40;99.90
19654;DHT22;9975;48.046;7.804;2022-12-07T04:47:01;3.50;99.90
19654;DHT22;9975;48.046;7.804;2022-12-07T04:49:27;3.30;99.90
19654;DHT22;9975;48.046;7.804;2022-12-07T04:51:53;3.40;99.90
19654;DHT22;9975;48.046;7.804;2022-12-07T04:54:19;3.40;99.90
19654;DHT22;9975;48.046;7.804;2022-12-07T04:59:15;3.40;99.90
19654;DHT22;9975;48.046;7.804;2022-12-07T05:01:41;3.30;99.90
19654;DHT22;9975;48.046;7.804;2022-12-07T05:04:07;3.30;99.90
19654;DHT22;9975;48.046;7.804;2022-12-07T05:06:33;3.30;99.90
19654;DHT22;9975;48.046;7.804;2022-12-07T05:11:25;3.20;99.90
19654;DHT22;9975;48.046;7.804;2022-12-07T05:16:41;3.10;99.90
19654;DHT22;9975;48.046;7.804;2022-12-07T05:19:07;3.10;99.90
19654;DHT22;9975;48.046;7.804;2022-12-07T05:21:33;3.10;99.90
19654;DHT22;9975;48.046;7.804;2022-12-07T05:23:59;3.10;99.90
19654;DHT22;9975;48.046;7.804;2022-12-07T05:26:25;3.10;99.90
19654;DHT22;9975;48.046;7.804;2022-12-07T05:28:52;3.10;99.90
19654;DHT22;9975;48.046;7.804;2022-12-07T05:31:18;3.00;99.90
19654;DHT22;9975;48.046;7.804;2022-12-07T05:33:44;3.20;99.90
19654;DHT22;9975;48.046;7.804;2022-12-07T05:36:09;3.20;99.90
19654;DHT22;9975;48.046;7.804;2022-12-07T05:38:35;3.20;99.90
19654;DHT22;9975;48.046;7.804;2022-12-07T05:41:02;3.20;99.90
19654;DHT22;9975;48.046;7.804;2022-12-07T05:43:29;3.10;99.90
19654;DHT22;9975;48.046;7.804;2022-12-07T05:45:54;3.10;99.90
19654;DHT22;9975;48.046;7.804;2022-12-07T05:48:20;3.20;99.90
19654;DHT22;9975;48.046;7.804;2022-12-07T05:50:48;3.20;99.90
19654;DHT22;9975;48.046;7.804;2022-12-07T05:53:14;3.20;99.90
19654;DHT22;9975;48.046;7.804;2022-12-07T05:58:05;2.90;99.90
19654;DHT22;9975;48.046;7.804;2022-12-07T06:01:00;3.00;99.90
19654;DHT22;9975;48.046;7.804;2022-12-07T06:05:52;3.00;99.90
19654;DHT22;9975;48.046;7.804;2022-12-07T06:08:18;3.10;99.90
19654;DHT22;9975;48.046;7.804;2022-12-07T06:10:44;3.10;99.90
19654;DHT22;9975;48.046;7.804;2022-12-07T06:13:10;3.30;99.90
19654;DHT22;9975;48.046;7.804;2022-12-07T06:15:36;3.10;99.90
19654;DHT22;9975;48.046;7.804;2022-12-07T06:18:02;3.10;99.90
19654;DHT22;9975;48.046;7.804;2022-12-07T06:20:27;3.00;99.90
19654;DHT22;9975;48.046;7.804;2022-12-07T06:22:53;2.80;99.90
19654;DHT22;9975;48.046;7.804;2022-12-07T06:25:18;2.80;99.90
19654;DHT22;9975;48.046;7.804;2022-12-07T06:27:44;2.70;99.90
19654;DHT22;9975;48.046;7.804;2022-12-07T06:32:36;2.60;99.90
19654;DHT22;9975;48.046;7.804;2022-12-07T06:35:03;2.50;99.90
19654;DHT22;9975;48.046;7.804;2022-12-07T06:37:29;2.50;99.90
19654;DHT22;9975;48.046;7.804;2022-12-07T06:39:54;2.40;99.90
19654;DHT22;9975;48.046;7.804;2022-12-07T06:44:46;2.40;99.90
19654;DHT22;9975;48.046;7.804;2022-12-07T06:47:12;2.40;99.90
19654;DHT22;9975;48.046;7.804;2022-12-07T06:54:31;2.20;99.90
19654;DHT22;9975;48.046;7.804;2022-12-07T06:59:22;2.10;99.90
19654;DHT22;9975;48.046;7.804;2022-12-07T07:01:48;2.10;99.90
19654;DHT22;9975;48.046;7.804;2022-12-07T07:04:13;2.10;99.90
19654;DHT22;9975;48.046;7.804;2022-12-07T07:06:39;2.00;99.90
19654;DHT22;9975;48.046;7.804;2022-12-07T07:09:05;1.90;99.90
19654;DHT22;9975;48.046;7.804;2022-12-07T07:16:27;1.80;99.90
19654;DHT22;9975;48.046;7.804;2022-12-07T07:18:55;1.90;99.90
19654;DHT22;9975;48.046;7.804;2022-12-07T07:21:21;1.90;99.90
19654;DHT22;9975;48.046;7.804;2022-12-07T07:23:46;1.70;99.90
19654;DHT22;9975;48.046;7.804;2022-12-07T07:28:38;1.70;99.90
19654;DHT22;9975;48.046;7.804;2022-12-07T07:31:04;1.70;99.90
19654;DHT22;9975;48.046;7.804;2022-12-07T07:33:29;1.80;99.90
19654;DHT22;9975;48.046;7.804;2022-12-07T07:35:55;1.80;99.90
19654;DHT22;9975;48.046;7.804;2022-12-07T07:38:21;1.70;99.90
19654;DHT22;9975;48.046;7.804;2022-12-07T07:43:12;1.70;99.90
19654;DHT22;9975;48.046;7.804;2022-12-07T07:45:38;1.60;99.90
19654;DHT22;9975;48.046;7.804;2022-12-07T07:48:04;1.60;99.90
19654;DHT22;9975;48.046;7.804;2022-12-07T07:52:57;1.50;99.90
19654;DHT22;9975;48.046;7.804;2022-12-07T07:55:22;1.60;99.90
19654;DHT22;9975;48.046;7.804;2022-12-07T08:00:15;1.80;99.90
19654;DHT22;9975;48.046;7.804;2022-12-07T08:02:42;1.70;99.90
19654;DHT22;9975;48.046;7.804;2022-12-07T08:05:09;1.70;99.90
19654;DHT22;9975;48.046;7.804;2022-12-07T08:07:35;1.70;99.90
19654;DHT22;9975;48.046;7.804;2022-12-07T08:10:00;1.70;99.90
19654;DHT22;9975;48.046;7.804;2022-12-07T08:12:26;2.00;99.90
19654;DHT22;9975;48.046;7.804;2022-12-07T08:14:52;2.10;99.90
19654;DHT22;9975;48.046;7.804;2022-12-07T08:17:17;2.30;99.90
19654;DHT22;9975;48.046;7.804;2022-12-07T08:19:43;2.50;99.90
19654;DHT22;9975;48.046;7.804;2022-12-07T08:22:08;2.70;99.90
19654;DHT22;9975;48.046;7.804;2022-12-07T08:24:35;3.10;99.90
19654;DHT22;9975;48.046;7.804;2022-12-07T08:27:01;3.00;99.90
19654;DHT22;9975;48.046;7.804;2022-12-07T08:29:27;3.20;99.90
19654;DHT22;9975;48.046;7.804;2022-12-07T08:31:53;3.20;99.90
19654;DHT22;9975;48.046;7.804;2022-12-07T08:34:18;3.10;99.90
19654;DHT22;9975;48.046;7.804;2022-12-07T08:36:44;2.90;99.90
19654;DHT22;9975;48.046;7.804;2022-12-07T08:39:10;2.80;99.90
19654;DHT22;9975;48.046;7.804;2022-12-07T08:41:35;2.80;99.90
19654;DHT22;9975;48.046;7.804;2022-12-07T08:44:01;2.70;99.90
19654;DHT22;9975;48.046;7.804;2022-12-07T08:46:44;2.60;99.90
19654;DHT22;9975;48.046;7.804;2022-12-07T08:49:13;2.70;99.90
19654;DHT22;9975;48.046;7.804;2022-12-07T08:54:14;2.90;99.90
19654;DHT22;9975;48.046;7.804;2022-12-07T08:56:40;3.00;99.90
19654;DHT22;9975;48.046;7.804;2022-12-07T08:59:07;3.00;99.90
19654;DHT22;9975;48.046;7.804;2022-12-07T09:01:32;3.00;99.90
19654;DHT22;9975;48.046;7.804;2022-12-07T09:03:58;3.00;99.90
19654;DHT22;9975;48.046;7.804;2022-12-07T09:06:24;3.20;99.90
19654;DHT22;9975;48.046;7.804;2022-12-07T09:08:53;3.20;99.90
19654;DHT22;9975;48.046;7.804;2022-12-07T09:11:21;3.50;99.90
19654;DHT22;9975;48.046;7.804;2022-12-07T09:13:46;3.80;99.90
19654;DHT22;9975;48.046;7.804;2022-12-07T09:16:12;4.10;99.90
19654;DHT22;9975;48.046;7.804;2022-12-07T09:18:38;4.30;99.90
19654;DHT22;9975;48.046;7.804;2022-12-07T09:21:04;4.70;99.90
19654;DHT22;9975;48.046;7.804;2022-12-07T09:23:29;4.90;99.90
19654;DHT22;9975;48.046;7.804;2022-12-07T09:25:59;5.00;99.90
19654;DHT22;9975;48.046;7.804;2022-12-07T09:30:51;5.10;99.90
19654;DHT22;9975;48.046;7.804;2022-12-07T09:33:17;5.10;99.90
19654;DHT22;9975;48.046;7.804;2022-12-07T09:35:50;5.10;99.90
19654;DHT22;9975;48.046;7.804;2022-12-07T09:38:17;5.20;99.90
19654;DHT22;9975;48.046;7.804;2022-12-07T09:40:43;5.30;99.90
19654;DHT22;9975;48.046;7.804;2022-12-07T09:43:19;5.50;99.90
19654;DHT22;9975;48.046;7.804;2022-12-07T09:45:48;5.50;99.90
19654;DHT22;9975;48.046;7.804;2022-12-07T09:48:20;5.40;99.90
19654;DHT22;9975;48.046;7.804;2022-12-07T09:50:48;5.30;99.90
19654;DHT22;9975;48.046;7.804;2022-12-07T09:53:33;5.50;99.90
19654;DHT22;9975;48.046;7.804;2022-12-07T09:55:59;5.80;99.90
19654;DHT22;9975;48.046;7.804;2022-12-07T09:58:27;6.00;99.90
19654;DHT22;9975;48.046;7.804;2022-12-07T10:00:58;6.20;99.90
19654;DHT22;9975;48.046;7.804;2022-12-07T10:03:27;6.50;99.90
19654;DHT22;9975;48.046;7.804;2022-12-07T10:05:55;6.50;99.90
19654;DHT22;9975;48.046;7.804;2022-12-07T10:08:21;6.90;99.90
19654;DHT22;9975;48.046;7.804;2022-12-07T10:10:54;7.10;99.90
19654;DHT22;9975;48.046;7.804;2022-12-07T10:13:47;7.50;99.90
19654;DHT22;9975;48.046;7.804;2022-12-07T10:22:09;8.30;99.90
19654;DHT22;9975;48.046;7.804;2022-12-07T10:24:35;8.20;99.90
19654;DHT22;9975;48.046;7.804;2022-12-07T10:27:04;8.40;99.90
19654;DHT22;9975;48.046;7.804;2022-12-07T10:29:33;8.80;99.90
19654;DHT22;9975;48.046;7.804;2022-12-07T10:32:02;9.00;99.90
19654;DHT22;9975;48.046;7.804;2022-12-07T10:34:32;8.90;98.40
19654;DHT22;9975;48.046;7.804;2022-12-07T10:37:17;8.80;98.60
19654;DHT22;9975;48.046;7.804;2022-12-07T10:39:48;9.10;98.00
19654;DHT22;9975;48.046;7.804;2022-12-07T10:42:24;8.80;95.00
19654;DHT22;9975;48.046;7.804;2022-12-07T10:45:16;9.00;95.90
19654;DHT22;9975;48.046;7.804;2022-12-07T10:48:07;9.10;92.70
19654;DHT22;9975;48.046;7.804;2022-12-07T10:53:54;9.10;91.40
19654;DHT22;9975;48.046;7.804;2022-12-07T11:19:11;9.30;90.10
19654;DHT22;9975;48.046;7.804;2022-12-07T11:21:58;9.60;89.70
19654;DHT22;9975;48.046;7.804;2022-12-07T11:24:32;9.50;89.00
19654;DHT22;9975;48.046;7.804;2022-12-07T11:30:12;8.70;90.20
19654;DHT22;9975;48.046;7.804;2022-12-07T11:38:17;8.90;88.00
19654;DHT22;9975;48.046;7.804;2022-12-07T11:40:46;8.80;87.40
19654;DHT22;9975;48.046;7.804;2022-12-07T11:45:43;8.40;88.40
19654;DHT22;9975;48.046;7.804;2022-12-07T11:48:23;7.80;86.50
19654;DHT22;9975;48.046;7.804;2022-12-07T11:50:54;7.70;87.60
19654;DHT22;9975;48.046;7.804;2022-12-07T11:53:44;7.80;88.70
19654;DHT22;9975;48.046;7.804;2022-12-07T11:56:30;7.50;89.20
19654;DHT22;9975;48.046;7.804;2022-12-07T11:59:12;7.40;89.10
19654;DHT22;9975;48.046;7.804;2022-12-07T12:01:57;7.50;87.80
19654;DHT22;9975;48.046;7.804;2022-12-07T12:07:19;7.90;89.90
19654;DHT22;9975;48.046;7.804;2022-12-07T12:09:58;8.00;90.30
19654;DHT22;9975;48.046;7.804;2022-12-07T12:23:19;8.70;87.00
19654;DHT22;9975;48.046;7.804;2022-12-07T12:25:57;8.50;84.60
19654;DHT22;9975;48.046;7.804;2022-12-07T12:43:59;7.80;81.50
19654;DHT22;9975;48.046;7.804;2022-12-07T12:46:51;7.80;80.50
19654;DHT22;9975;48.046;7.804;2022-12-07T12:52:45;8.10;81.00
19654;DHT22;9975;48.046;7.804;2022-12-07T12:57:36;8.30;83.00
19654;DHT22;9975;48.046;7.804;2022-12-07T13:00:18;8.40;80.70
19654;DHT22;9975;48.046;7.804;2022-12-07T13:02:50;8.10;80.20
19654;DHT22;9975;48.046;7.804;2022-12-07T13:05:20;7.90;79.50
19654;DHT22;9975;48.046;7.804;2022-12-07T13:15:52;7.30;80.90
19654;DHT22;9975;48.046;7.804;2022-12-07T13:18:27;7.10;80.70
19654;DHT22;9975;48.046;7.804;2022-12-07T13:29:15;7.10;81.70
19654;DHT22;9975;48.046;7.804;2022-12-07T13:31:49;7.20;80.80
19654;DHT22;9975;48.046;7.804;2022-12-07T13:34:36;7.20;81.30
19654;DHT22;9975;48.046;7.804;2022-12-07T13:39:49;6.90;77.30
19654;DHT22;9975;48.046;7.804;2022-12-07T13:42:29;6.70;77.10
19654;DHT22;9975;48.046;7.804;2022-12-07T13:44:57;6.90;78.60
19654;DHT22;9975;48.046;7.804;2022-12-07T13:49:55;6.70;80.10
19654;DHT22;9975;48.046;7.804;2022-12-07T13:52:27;6.80;80.50
19654;DHT22;9975;48.046;7.804;2022-12-07T13:57:30;6.70;80.00
19654;DHT22;9975;48.046;7.804;2022-12-07T13:59:57;6.70;80.60
19654;DHT22;9975;48.046;7.804;2022-12-07T14:02:28;6.70;81.40
19654;DHT22;9975;48.046;7.804;2022-12-07T14:05:14;6.50;84.50
19654;DHT22;9975;48.046;7.804;2022-12-07T14:08:01;6.60;85.30
19654;DHT22;9975;48.046;7.804;2022-12-07T14:10:30;6.70;85.40
19654;DHT22;9975;48.046;7.804;2022-12-07T14:12:56;6.80;86.40
19654;DHT22;9975;48.046;7.804;2022-12-07T14:15:25;6.20;85.90
19654;DHT22;9975;48.046;7.804;2022-12-07T14:17:54;6.80;86.80
19654;DHT22;9975;48.046;7.804;2022-12-07T14:20:37;6.70;87.30
19654;DHT22;9975;48.046;7.804;2022-12-07T14:23:04;6.90;86.40
19654;DHT22;9975;48.046;7.804;2022-12-07T14:25:46;6.90;86.60
19654;DHT22;9975;48.046;7.804;2022-12-07T14:28:32;6.90;87.30
19654;DHT22;9975;48.046;7.804;2022-12-07T14:30:58;6.80;87.60
19654;DHT22;9975;48.046;7.804;2022-12-07T14:33:24;6.60;88.40
19654;DHT22;9975;48.046;7.804;2022-12-07T14:40:47;6.60;90.00
19654;DHT22;9975;48.046;7.804;2022-12-07T14:43:16;6.70;90.20
19654;DHT22;9975;48.046;7.804;2022-12-07T14:45:42;6.80;90.20
19654;DHT22;9975;48.046;7.804;2022-12-07T14:48:11;6.80;90.40
19654;DHT22;9975;48.046;7.804;2022-12-07T14:50:42;6.60;90.70
19654;DHT22;9975;48.046;7.804;2022-12-07T14:53:19;6.60;91.10
19654;DHT22;9975;48.046;7.804;2022-12-07T14:55:46;6.60;91.20
19654;DHT22;9975;48.046;7.804;2022-12-07T14:58:14;6.50;91.30
19654;DHT22;9975;48.046;7.804;2022-12-07T15:00:40;6.50;91.60
19654;DHT22;9975;48.046;7.804;2022-12-07T15:05:32;6.40;92.00
19654;DHT22;9975;48.046;7.804;2022-12-07T15:07:58;6.40;91.90
19654;DHT22;9975;48.046;7.804;2022-12-07T15:10:26;6.40;92.00
19654;DHT22;9975;48.046;7.804;2022-12-07T15:12:55;6.30;92.20
19654;DHT22;9975;48.046;7.804;2022-12-07T15:15:41;6.40;92.00
19654;DHT22;9975;48.046;7.804;2022-12-07T15:18:07;6.20;92.00
19654;DHT22;9975;48.046;7.804;2022-12-07T15:20:33;6.30;92.30
19654;DHT22;9975;48.046;7.804;2022-12-07T15:25:24;6.00;92.60
19654;DHT22;9975;48.046;7.804;2022-12-07T15:27:50;5.80;92.70
19654;DHT22;9975;48.046;7.804;2022-12-07T15:30:15;5.80;93.10
19654;DHT22;9975;48.046;7.804;2022-12-07T15:32:41;5.80;93.20
19654;DHT22;9975;48.046;7.804;2022-12-07T15:35:07;5.60;93.40
19654;DHT22;9975;48.046;7.804;2022-12-07T15:37:33;5.70;93.40
19654;DHT22;9975;48.046;7.804;2022-12-07T15:39:59;5.60;93.70
19654;DHT22;9975;48.046;7.804;2022-12-07T15:42:24;5.40;93.60
19654;DHT22;9975;48.046;7.804;2022-12-07T15:47:42;5.40;94.10
19654;DHT22;9975;48.046;7.804;2022-12-07T15:50:11;5.40;94.40
19654;DHT22;9975;48.046;7.804;2022-12-07T15:52:39;5.20;94.80
19654;DHT22;9975;48.046;7.804;2022-12-07T15:55:10;5.10;95.10
19654;DHT22;9975;48.046;7.804;2022-12-07T15:57:38;5.10;95.80
19654;DHT22;9975;48.046;7.804;2022-12-07T16:00:09;5.00;95.80
19654;DHT22;9975;48.046;7.804;2022-12-07T16:02:36;5.00;95.90
19654;DHT22;9975;48.046;7.804;2022-12-07T16:05:02;5.00;95.90
19654;DHT22;9975;48.046;7.804;2022-12-07T16:07:28;5.00;96.30
19654;DHT22;9975;48.046;7.804;2022-12-07T16:12:19;4.80;96.10
19654;DHT22;9975;48.046;7.804;2022-12-07T16:17:11;4.40;97.30
19654;DHT22;9975;48.046;7.804;2022-12-07T16:19:37;4.20;98.10
19654;DHT22;9975;48.046;7.804;2022-12-07T16:22:03;4.10;98.20
19654;DHT22;9975;48.046;7.804;2022-12-07T16:24:29;4.10;98.10
19654;DHT22;9975;48.046;7.804;2022-12-07T16:26:57;4.10;98.40
19654;DHT22;9975;48.046;7.804;2022-12-07T16:29:22;3.80;98.80
19654;DHT22;9975;48.046;7.804;2022-12-07T16:31:49;3.60;99.20
19654;DHT22;9975;48.046;7.804;2022-12-07T16:34:15;3.70;99.10
19654;DHT22;9975;48.046;7.804;2022-12-07T16:36:40;3.70;99.20
19654;DHT22;9975;48.046;7.804;2022-12-07T16:41:32;3.60;99.50
19654;DHT22;9975;48.046;7.804;2022-12-07T16:44:03;3.50;99.40
19654;DHT22;9975;48.046;7.804;2022-12-07T16:46:30;3.50;99.90
19654;DHT22;9975;48.046;7.804;2022-12-07T16:48:56;3.40;99.90
19654;DHT22;9975;48.046;7.804;2022-12-07T16:51:22;3.40;99.90
19654;DHT22;9975;48.046;7.804;2022-12-07T16:53:47;3.60;99.90
19654;DHT22;9975;48.046;7.804;2022-12-07T16:56:14;3.40;99.90
19654;DHT22;9975;48.046;7.804;2022-12-07T16:58:44;3.30;99.90
19654;DHT22;9975;48.046;7.804;2022-12-07T17:01:14;3.20;99.90
19654;DHT22;9975;48.046;7.804;2022-12-07T17:03:40;3.30;99.90
19654;DHT22;9975;48.046;7.804;2022-12-07T17:06:27;3.00;99.90
19654;DHT22;9975;48.046;7.804;2022-12-07T17:08:53;3.00;99.90
19654;DHT22;9975;48.046;7.804;2022-12-07T17:11:22;2.80;99.90
19654;DHT22;9975;48.046;7.804;2022-12-07T17:13:49;2.70;99.90
19654;DHT22;9975;48.046;7.804;2022-12-07T17:16:33;2.70;99.90
19654;DHT22;9975;48.046;7.804;2022-12-07T17:19:03;2.60;99.90
19654;DHT22;9975;48.046;7.804;2022-12-07T17:21:28;2.50;99.90
19654;DHT22;9975;48.046;7.804;2022-12-07T17:23:54;2.50;99.90
19654;DHT22;9975;48.046;7.804;2022-12-07T17:26:25;2.40;99.90
19654;DHT22;9975;48.046;7.804;2022-12-07T17:28:51;2.30;99.90
19654;DHT22;9975;48.046;7.804;2022-12-07T17:31:18;2.30;99.90
19654;DHT22;9975;48.046;7.804;2022-12-07T17:33:44;2.30;99.90
19654;DHT22;9975;48.046;7.804;2022-12-07T17:36:20;2.30;99.90
19654;DHT22;9975;48.046;7.804;2022-12-07T17:38:47;2.40;99.90
19654;DHT22;9975;48.046;7.804;2022-12-07T17:41:19;2.30;99.90
19654;DHT22;9975;48.046;7.804;2022-12-07T17:44:16;2.30;99.90
19654;DHT22;9975;48.046;7.804;2022-12-07T17:46:44;2.40;99.90
19654;DHT22;9975;48.046;7.804;2022-12-07T17:49:10;2.30;99.90
19654;DHT22;9975;48.046;7.804;2022-12-07T17:51:35;2.20;99.90
19654;DHT22;9975;48.046;7.804;2022-12-07T17:59:12;1.90;99.90
19654;DHT22;9975;48.046;7.804;2022-12-07T18:04:04;1.70;99.90
19654;DHT22;9975;48.046;7.804;2022-12-07T18:06:31;1.70;99.90
19654;DHT22;9975;48.046;7.804;2022-12-07T18:08:57;1.80;99.90
19654;DHT22;9975;48.046;7.804;2022-12-07T18:11:23;1.80;99.90
19654;DHT22;9975;48.046;7.804;2022-12-07T18:16:17;1.70;99.90
19654;DHT22;9975;48.046;7.804;2022-12-07T18:18:44;1.60;99.90
19654;DHT22;9975;48.046;7.804;2022-12-07T18:21:14;1.50;99.90
19654;DHT22;9975;48.046;7.804;2022-12-07T18:23:45;1.60;99.90
19654;DHT22;9975;48.046;7.804;2022-12-07T18:26:13;1.40;99.90
19654;DHT22;9975;48.046;7.804;2022-12-07T18:28:39;1.50;99.90
19654;DHT22;9975;48.046;7.804;2022-12-07T18:31:07;1.50;99.90
19654;DHT22;9975;48.046;7.804;2022-12-07T18:36:00;1.70;99.90
19654;DHT22;9975;48.046;7.804;2022-12-07T18:38:27;1.70;99.90
19654;DHT22;9975;48.046;7.804;2022-12-07T18:40:53;1.60;99.90
19654;DHT22;9975;48.046;7.804;2022-12-07T18:43:19;1.70;99.90
19654;DHT22;9975;48.046;7.804;2022-12-07T18:45:56;1.70;99.90
19654;DHT22;9975;48.046;7.804;2022-12-07T18:51:02;1.70;99.90
19654;DHT22;9975;48.046;7.804;2022-12-07T18:56:21;1.70;99.90
19654;DHT22;9975;48.046;7.804;2022-12-07T18:58:52;1.70;99.90
19654;DHT22;9975;48.046;7.804;2022-12-07T19:01:38;1.70;99.90
19654;DHT22;9975;48.046;7.804;2022-12-07T19:04:04;1.50;99.90
19654;DHT22;9975;48.046;7.804;2022-12-07T19:06:30;1.40;99.90
19654;DHT22;9975;48.046;7.804;2022-12-07T19:08:56;1.40;99.90
19654;DHT22;9975;48.046;7.804;2022-12-07T19:11:27;1.40;99.90
19654;DHT22;9975;48.046;7.804;2022-12-07T19:14:14;1.40;99.90
19654;DHT22;9975;48.046;7.804;2022-12-07T19:16:41;1.40;99.90
19654;DHT22;9975;48.046;7.804;2022-12-07T19:19:06;1.40;99.90
19654;DHT22;9975;48.046;7.804;2022-12-07T19:21:32;1.50;99.90
19654;DHT22;9975;48.046;7.804;2022-12-07T19:23:58;1.40;99.90
19654;DHT22;9975;48.046;7.804;2022-12-07T19:28:50;1.50;99.90
19654;DHT22;9975;48.046;7.804;2022-12-07T19:33:41;1.60;99.90
19654;DHT22;9975;48.046;7.804;2022-12-07T19:36:07;1.60;99.90
19654;DHT22;9975;48.046;7.804;2022-12-07T19:38:33;1.60;99.90
19654;DHT22;9975;48.046;7.804;2022-12-07T19:41:10;1.60;99.90
19654;DHT22;9975;48.046;7.804;2022-12-07T19:43:56;1.70;99.90
19654;DHT22;9975;48.046;7.804;2022-12-07T19:46:22;1.80;99.90
19654;DHT22;9975;48.046;7.804;2022-12-07T19:48:48;1.70;99.90
19654;DHT22;9975;48.046;7.804;2022-12-07T19:51:13;1.60;99.90
19654;DHT22;9975;48.046;7.804;2022-12-07T19:53:39;1.70;99.90
19654;DHT22;9975;48.046;7.804;2022-12-07T19:58:31;1.70;99.90
19654;DHT22;9975;48.046;7.804;2022-12-07T20:01:03;1.70;99.90
19654;DHT22;9975;48.046;7.804;2022-12-07T20:05:55;1.80;99.90
19654;DHT22;9975;48.046;7.804;2022-12-07T20:08:24;1.90;99.90
19654;DHT22;9975;48.046;7.804;2022-12-07T20:10:50;1.90;99.90
19654;DHT22;9975;48.046;7.804;2022-12-07T20:13:19;1.60;99.90
19654;DHT22;9975;48.046;7.804;2022-12-07T20:15:54;1.70;99.90
19654;DHT22;9975;48.046;7.804;2022-12-07T20:18:20;1.60;99.90
19654;DHT22;9975;48.046;7.804;2022-12-07T20:20:58;1.50;99.90
19654;DHT22;9975;48.046;7.804;2022-12-07T20:23:27;1.70;99.90
19654;DHT22;9975;48.046;7.804;2022-12-07T20:25:53;1.60;99.90
19654;DHT22;9975;48.046;7.804;2022-12-07T20:28:22;1.60;99.90
19654;DHT22;9975;48.046;7.804;2022-12-07T20:30:57;1.70;99.90
19654;DHT22;9975;48.046;7.804;2022-12-07T20:33:22;1.70;99.90
19654;DHT22;9975;48.046;7.804;2022-12-07T20:35:48;1.50;99.90
19654;DHT22;9975;48.046;7.804;2022-12-07T20:38:14;1.60;99.90
19654;DHT22;9975;48.046;7.804;2022-12-07T20:40:49;1.50;99.90
19654;DHT22;9975;48.046;7.804;2022-12-07T20:43:15;1.30;99.90
19654;DHT22;9975;48.046;7.804;2022-12-07T20:45:45;1.50;99.90
19654;DHT22;9975;48.046;7.804;2022-12-07T20:48:11;1.40;99.90
19654;DHT22;9975;48.046;7.804;2022-12-07T20:50:37;1.30;99.90
19654;DHT22;9975;48.046;7.804;2022-12-07T20:53:02;1.20;99.90
19654;DHT22;9975;48.046;7.804;2022-12-07T20:55:28;1.20;99.90
19654;DHT22;9975;48.046;7.804;2022-12-07T21:00:20;1.20;99.90
19654;DHT22;9975;48.046;7.804;2022-12-07T21:02:46;1.20;99.90
19654;DHT22;9975;48.046;7.804;2022-12-07T21:05:11;1.20;99.90
19654;DHT22;9975;48.046;7.804;2022-12-07T21:07:37;0.90;99.90
19654;DHT22;9975;48.046;7.804;2022-12-07T21:10:04;0.90;99.90
19654;DHT22;9975;48.046;7.804;2022-12-07T21:12:29;0.80;99.90
19654;DHT22;9975;48.046;7.804;2022-12-07T21:14:55;0.90;99.90
19654;DHT22;9975;48.046;7.804;2022-12-07T21:17:21;0.90;99.90
19654;DHT22;9975;48.046;7.804;2022-12-07T21:19:46;1.00;99.90
19654;DHT22;9975;48.046;7.804;2022-12-07T21:24:39;0.80;99.90
19654;DHT22;9975;48.046;7.804;2022-12-07T21:27:06;0.90;99.90
19654;DHT22;9975;48.046;7.804;2022-12-07T21:29:32;1.00;99.90
19654;DHT22;9975;48.046;7.804;2022-12-07T21:34:24;0.90;99.90
19654;DHT22;9975;48.046;7.804;2022-12-07T21:36:50;1.00;99.90
19654;DHT22;9975;48.046;7.804;2022-12-07T21:39:15;1.00;99.90
19654;DHT22;9975;48.046;7.804;2022-12-07T21:41:42;1.00;99.90
19654;DHT22;9975;48.046;7.804;2022-12-07T21:44:08;0.90;99.90
19654;DHT22;9975;48.046;7.804;2022-12-07T21:46:38;0.90;99.90
19654;DHT22;9975;48.046;7.804;2022-12-07T21:49:07;0.90;99.90
19654;DHT22;9975;48.046;7.804;2022-12-07T21:51:33;1.00;99.90
19654;DHT22;9975;48.046;7.804;2022-12-07T21:54:00;1.00;99.90
19654;DHT22;9975;48.046;7.804;2022-12-07T21:56:29;1.00;99.90
19654;DHT22;9975;48.046;7.804;2022-12-07T21:59:05;1.00;99.90
19654;DHT22;9975;48.046;7.804;2022-12-07T22:01:33;1.10;99.90
19654;DHT22;9975;48.046;7.804;2022-12-07T22:04:07;1.00;99.90